sensor_id;sensor_type;location;lat;lon;timestamp;pressure;altitude;pressure_sealevel;temperature;humidity
28267;BME280;15525;45.568;5.448;2023-04-26T00:02:21;98003.09;;;12.22;48.89
28267;BME280;15525;45.568;5.448;2023-04-26T00:04:50;97997.22;;;12.15;50.04
28267;BME280;15525;45.568;5.448;2023-04-26T00:07:20;97991.34;;;12.13;48.87
28267;BME280;15525;45.568;5.448;2023-04-26T00:09:46;97998.22;;;12.24;48.87
28267;BME280;15525;45.568;5.448;2023-04-26T00:12:12;97991.34;;;12.13;49.17
28267;BME280;15525;45.568;5.448;2023-04-26T00:14:37;98000.16;;;12.18;49.06
28267;BME280;15525;45.568;5.448;2023-04-26T00:17:03;98002.78;;;12.23;48.41
28267;BME280;15525;45.568;5.448;2023-04-26T00:19:29;98016.06;;;12.10;48.75
28267;BME280;15525;45.568;5.448;2023-04-26T00:21:55;98015.78;;;12.11;49.19
28267;BME280;15525;45.568;5.448;2023-04-26T00:24:20;98003.53;;;11.95;49.00
28267;BME280;15525;45.568;5.448;2023-04-26T00:26:46;98015.84;;;12.01;49.00
28267;BME280;15525;45.568;5.448;2023-04-26T00:29:11;98009.41;;;12.02;49.37
28267;BME280;15525;45.568;5.448;2023-04-26T00:31:37;98006.81;;;11.87;49.50
28267;BME280;15525;45.568;5.448;2023-04-26T00:34:02;97998.78;;;11.87;49.46
28267;BME280;15525;45.568;5.448;2023-04-26T00:36:27;97993.88;;;11.94;48.80
28267;BME280;15525;45.568;5.448;2023-04-26T00:38:53;97997.88;;;11.97;48.94
28267;BME280;15525;45.568;5.448;2023-04-26T00:41:18;98004.88;;;11.93;49.31
28267;BME280;15525;45.568;5.448;2023-04-26T00:43:43;98028.25;;;11.92;49.01
28267;BME280;15525;45.568;5.448;2023-04-26T00:46:09;98025.06;;;11.85;49.17
28267;BME280;15525;45.568;5.448;2023-04-26T00:48:36;98024.78;;;11.87;49.12
28267;BME280;15525;45.568;5.448;2023-04-26T00:51:01;98033.97;;;11.70;49.30
28267;BME280;15525;45.568;5.448;2023-04-26T00:53:27;98025.16;;;11.70;49.63
28267;BME280;15525;45.568;5.448;2023-04-26T00:55:54;98035.06;;;11.69;49.24
28267;BME280;15525;45.568;5.448;2023-04-26T00:58:20;98016.59;;;11.58;49.45
28267;BME280;15525;45.568;5.448;2023-04-26T01:00:46;98025.72;;;11.62;49.75
28267;BME280;15525;45.568;5.448;2023-04-26T01:03:11;98015.03;;;11.52;49.65
28267;BME280;15525;45.568;5.448;2023-04-26T01:05:37;98018.25;;;11.49;49.62
28267;BME280;15525;45.568;5.448;2023-04-26T01:08:03;98045.28;;;11.57;49.68
28267;BME280;15525;45.568;5.448;2023-04-26T01:10:31;98013.19;;;11.37;49.81
28267;BME280;15525;45.568;5.448;2023-04-26T01:12:57;98017.53;;;11.23;50.08
28267;BME280;15525;45.568;5.448;2023-04-26T01:15:25;98030.16;;;11.18;50.24
28267;BME280;15525;45.568;5.448;2023-04-26T01:17:52;98043.56;;;11.23;50.62
28267;BME280;15525;45.568;5.448;2023-04-26T01:20:17;98017.84;;;11.17;49.74
28267;BME280;15525;45.568;5.448;2023-04-26T01:22:42;98024.28;;;11.16;49.99
28267;BME280;15525;45.568;5.448;2023-04-26T01:25:10;98033.34;;;11.30;49.98
28267;BME280;15525;45.568;5.448;2023-04-26T01:27:36;98027.19;;;11.19;49.95
28267;BME280;15525;45.568;5.448;2023-04-26T01:30:02;98045.91;;;11.39;49.96
28267;BME280;15525;45.568;5.448;2023-04-26T01:32:27;98025.00;;;11.36;49.69
28267;BME280;15525;45.568;5.448;2023-04-26T01:34:53;98021.00;;;11.29;49.98
28267;BME280;15525;45.568;5.448;2023-04-26T01:37:18;98019.44;;;11.23;50.13
28267;BME280;15525;45.568;5.448;2023-04-26T01:39:44;97997.81;;;10.99;50.18
28267;BME280;15525;45.568;5.448;2023-04-26T01:42:10;98014.09;;;11.08;49.98
28267;BME280;15525;45.568;5.448;2023-04-26T01:44:36;97978.28;;;10.89;50.41
28267;BME280;15525;45.568;5.448;2023-04-26T01:47:01;98008.72;;;11.18;49.96
28267;BME280;15525;45.568;5.448;2023-04-26T01:49:27;98020.19;;;11.28;49.83
28267;BME280;15525;45.568;5.448;2023-04-26T01:51:53;98016.44;;;11.34;49.39
28267;BME280;15525;45.568;5.448;2023-04-26T01:54:18;98025.03;;;11.31;49.78
28267;BME280;15525;45.568;5.448;2023-04-26T01:56:44;98013.56;;;11.16;49.56
28267;BME280;15525;45.568;5.448;2023-04-26T01:59:09;97994.09;;;10.90;50.16
28267;BME280;15525;45.568;5.448;2023-04-26T02:01:35;97982.63;;;10.75;50.01
28267;BME280;15525;45.568;5.448;2023-04-26T02:04:01;98012.59;;;10.82;50.59
28267;BME280;15525;45.568;5.448;2023-04-26T02:06:26;97943.63;;;10.34;50.90
28267;BME280;15525;45.568;5.448;2023-04-26T02:08:52;98010.69;;;10.82;50.62
28267;BME280;15525;45.568;5.448;2023-04-26T02:11:17;97987.47;;;10.68;50.83
28267;BME280;15525;45.568;5.448;2023-04-26T02:13:43;98001.38;;;10.70;50.95
28267;BME280;15525;45.568;5.448;2023-04-26T02:16:08;98018.69;;;10.92;50.35
28267;BME280;15525;45.568;5.448;2023-04-26T02:18:34;98006.13;;;10.93;49.99
28267;BME280;15525;45.568;5.448;2023-04-26T02:20:59;97982.59;;;10.80;50.25
28267;BME280;15525;45.568;5.448;2023-04-26T02:23:24;97994.38;;;10.79;50.65
28267;BME280;15525;45.568;5.448;2023-04-26T02:25:50;98014.97;;;10.98;50.61
28267;BME280;15525;45.568;5.448;2023-04-26T02:28:16;98000.25;;;10.86;50.70
28267;BME280;15525;45.568;5.448;2023-04-26T02:30:41;97982.66;;;10.55;50.52
28267;BME280;15525;45.568;5.448;2023-04-26T02:33:07;98008.31;;;10.71;50.93
28267;BME280;15525;45.568;5.448;2023-04-26T02:35:34;98010.97;;;10.76;51.41
28267;BME280;15525;45.568;5.448;2023-04-26T02:38:00;98006.13;;;10.93;50.68
28267;BME280;15525;45.568;5.448;2023-04-26T02:40:25;98001.31;;;10.90;50.39
28267;BME280;15525;45.568;5.448;2023-04-26T02:42:51;98014.97;;;10.98;50.31
28267;BME280;15525;45.568;5.448;2023-04-26T02:45:16;97996.78;;;10.85;50.82
28267;BME280;15525;45.568;5.448;2023-04-26T02:47:42;97976.19;;;10.76;51.00
28267;BME280;15525;45.568;5.448;2023-04-26T02:50:08;97993.31;;;10.80;50.74
28267;BME280;15525;45.568;5.448;2023-04-26T02:52:34;98011.72;;;10.96;51.02
28267;BME280;15525;45.568;5.448;2023-04-26T02:55:01;98000.50;;;10.99;50.55
28267;BME280;15525;45.568;5.448;2023-04-26T02:57:27;97974.06;;;10.73;51.02
28267;BME280;15525;45.568;5.448;2023-04-26T02:59:53;97968.44;;;10.64;51.10
28267;BME280;15525;45.568;5.448;2023-04-26T03:02:19;97985.81;;;10.77;50.73
28267;BME280;15525;45.568;5.448;2023-04-26T03:04:45;98002.94;;;10.76;51.33
28267;BME280;15525;45.568;5.448;2023-04-26T03:07:11;98001.34;;;10.80;51.72
28267;BME280;15525;45.568;5.448;2023-04-26T03:09:37;97930.78;;;10.26;51.29
28267;BME280;15525;45.568;5.448;2023-04-26T03:12:06;98002.94;;;10.81;51.36
28267;BME280;15525;45.568;5.448;2023-04-26T03:14:32;97982.34;;;10.71;51.18
28267;BME280;15525;45.568;5.448;2023-04-26T03:16:58;97998.38;;;10.86;51.38
28267;BME280;15525;45.568;5.448;2023-04-26T03:19:24;97993.81;;;10.92;50.77
28267;BME280;15525;45.568;5.448;2023-04-26T03:21:50;98008.78;;;11.03;51.10
28267;BME280;15525;45.568;5.448;2023-04-26T03:24:15;97973.97;;;11.03;50.80
28267;BME280;15525;45.568;5.448;2023-04-26T03:26:41;97965.66;;;11.04;50.21
28267;BME280;15525;45.568;5.448;2023-04-26T03:29:06;97941.34;;;10.91;50.49
28267;BME280;15525;45.568;5.448;2023-04-26T03:31:32;97962.44;;;11.07;50.30
28267;BME280;15525;45.568;5.448;2023-04-26T03:33:58;98000.91;;;11.31;50.27
28267;BME280;15525;45.568;5.448;2023-04-26T03:36:24;97979.31;;;11.03;50.30
28267;BME280;15525;45.568;5.448;2023-04-26T03:38:53;98008.25;;;11.01;50.75
28267;BME280;15525;45.568;5.448;2023-04-26T03:41:18;97999.47;;;10.80;51.09
28267;BME280;15525;45.568;5.448;2023-04-26T03:43:44;98007.78;;;10.79;51.81
28267;BME280;15525;45.568;5.448;2023-04-26T03:46:09;97976.19;;;10.71;51.30
28267;BME280;15525;45.568;5.448;2023-04-26T03:48:34;97984.22;;;10.76;51.67
28267;BME280;15525;45.568;5.448;2023-04-26T03:51:00;97987.44;;;10.78;51.58
28267;BME280;15525;45.568;5.448;2023-04-26T03:53:26;97986.09;;;10.65;51.81
28267;BME280;15525;45.568;5.448;2023-04-26T03:55:51;98010.47;;;10.69;51.88
28267;BME280;15525;45.568;5.448;2023-04-26T03:58:17;97989.59;;;10.56;52.22
28267;BME280;15525;45.568;5.448;2023-04-26T04:00:42;97993.63;;;10.58;52.19
28267;BME280;15525;45.568;5.448;2023-04-26T04:03:08;97992.81;;;10.58;51.67
28267;BME280;15525;45.568;5.448;2023-04-26T04:05:33;97994.44;;;10.59;51.86
28267;BME280;15525;45.568;5.448;2023-04-26T04:07:59;97968.50;;;10.34;51.98
28267;BME280;15525;45.568;5.448;2023-04-26T04:10:25;97975.47;;;10.30;52.32
28267;BME280;15525;45.568;5.448;2023-04-26T04:12:51;98003.53;;;10.38;52.00
28267;BME280;15525;45.568;5.448;2023-04-26T04:15:18;97984.28;;;10.36;51.94
28267;BME280;15525;45.568;5.448;2023-04-26T04:17:43;97994.69;;;10.37;51.74
28267;BME280;15525;45.568;5.448;2023-04-26T04:20:09;98005.41;;;10.47;51.59
28267;BME280;15525;45.568;5.448;2023-04-26T04:22:35;97963.69;;;10.21;51.45
28267;BME280;15525;45.568;5.448;2023-04-26T04:25:00;97981.06;;;10.24;52.26
28267;BME280;15525;45.568;5.448;2023-04-26T04:27:28;97994.44;;;10.39;51.91
28267;BME280;15525;45.568;5.448;2023-04-26T04:29:54;97984.00;;;10.32;51.49
28267;BME280;15525;45.568;5.448;2023-04-26T04:32:20;98008.63;;;10.24;52.07
28267;BME280;15525;45.568;5.448;2023-04-26T04:34:47;98016.38;;;10.26;51.85
28267;BME280;15525;45.568;5.448;2023-04-26T04:37:12;98003.00;;;10.16;51.78
28267;BME280;15525;45.568;5.448;2023-04-26T04:39:39;98025.22;;;10.21;52.49
28267;BME280;15525;45.568;5.448;2023-04-26T04:42:04;98019.59;;;10.18;51.77
28267;BME280;15525;45.568;5.448;2023-04-26T04:44:30;98017.44;;;10.30;51.81
28267;BME280;15525;45.568;5.448;2023-04-26T04:46:55;98022.00;;;10.44;52.00
28267;BME280;15525;45.568;5.448;2023-04-26T04:49:21;98033.50;;;10.50;51.76
28267;BME280;15525;45.568;5.448;2023-04-26T04:51:46;98025.47;;;10.30;51.69
28267;BME280;15525;45.568;5.448;2023-04-26T04:54:16;98019.34;;;10.24;51.71
28267;BME280;15525;45.568;5.448;2023-04-26T04:56:42;98040.47;;;10.46;51.91
28267;BME280;15525;45.568;5.448;2023-04-26T04:59:08;98045.00;;;10.40;51.46
28267;BME280;15525;45.568;5.448;2023-04-26T05:01:35;98040.44;;;10.31;52.36
28267;BME280;15525;45.568;5.448;2023-04-26T05:04:04;98028.66;;;10.17;52.38
28267;BME280;15525;45.568;5.448;2023-04-26T05:06:30;98006.19;;;10.08;52.21
28267;BME280;15525;45.568;5.448;2023-04-26T05:08:56;98006.50;;;10.16;52.07
28267;BME280;15525;45.568;5.448;2023-04-26T05:11:22;98019.59;;;10.28;51.67
28267;BME280;15525;45.568;5.448;2023-04-26T05:13:47;98015.03;;;10.28;51.63
28267;BME280;15525;45.568;5.448;2023-04-26T05:16:13;98042.59;;;10.39;51.99
28267;BME280;15525;45.568;5.448;2023-04-26T05:18:38;98047.13;;;10.33;52.43
28267;BME280;15525;45.568;5.448;2023-04-26T05:21:04;98029.22;;;10.19;52.42
28267;BME280;15525;45.568;5.448;2023-04-26T05:23:30;98029.47;;;10.17;52.64
28267;BME280;15525;45.568;5.448;2023-04-26T05:25:55;98013.97;;;10.14;52.44
28267;BME280;15525;45.568;5.448;2023-04-26T05:28:21;98055.72;;;10.45;52.34
28267;BME280;15525;45.568;5.448;2023-04-26T05:30:47;98046.06;;;10.49;52.04
28267;BME280;15525;45.568;5.448;2023-04-26T05:33:14;97995.25;;;10.19;52.17
28267;BME280;15525;45.568;5.448;2023-04-26T05:35:39;98049.00;;;10.73;51.51
28267;BME280;15525;45.568;5.448;2023-04-26T05:38:05;98059.16;;;10.86;51.28
28267;BME280;15525;45.568;5.448;2023-04-26T05:40:30;98062.63;;;10.91;51.51
28267;BME280;15525;45.568;5.448;2023-04-26T05:42:56;98046.81;;;10.90;51.67
28267;BME280;15525;45.568;5.448;2023-04-26T05:45:21;98031.34;;;10.82;51.27
28267;BME280;15525;45.568;5.448;2023-04-26T05:47:47;98053.50;;;10.92;52.00
28267;BME280;15525;45.568;5.448;2023-04-26T05:50:12;98077.06;;;11.10;51.76
28267;BME280;15525;45.568;5.448;2023-04-26T05:52:38;98063.41;;;11.07;51.39
28267;BME280;15525;45.568;5.448;2023-04-26T05:55:03;98066.63;;;10.94;51.98
28267;BME280;15525;45.568;5.448;2023-04-26T05:57:30;98080.56;;;11.01;52.05
28267;BME280;15525;45.568;5.448;2023-04-26T05:59:55;98084.28;;;11.15;51.87
28267;BME280;15525;45.568;5.448;2023-04-26T06:02:21;98070.34;;;11.23;51.50
28267;BME280;15525;45.568;5.448;2023-04-26T06:04:46;98064.38;;;11.36;51.16
28267;BME280;15525;45.568;5.448;2023-04-26T06:07:11;98087.38;;;11.57;51.45
28267;BME280;15525;45.568;5.448;2023-04-26T06:09:37;98090.06;;;11.62;51.17
28267;BME280;15525;45.568;5.448;2023-04-26T06:12:02;98075.53;;;11.73;50.79
28267;BME280;15525;45.568;5.448;2023-04-26T06:14:28;98056.25;;;11.71;50.98
28267;BME280;15525;45.568;5.448;2023-04-26T06:16:55;98069.88;;;11.85;51.12
28267;BME280;15525;45.568;5.448;2023-04-26T06:19:20;98048.97;;;11.77;51.23
28267;BME280;15525;45.568;5.448;2023-04-26T06:21:46;98003.19;;;11.63;50.82
28267;BME280;15525;45.568;5.448;2023-04-26T06:24:13;98032.72;;;12.02;50.45
28267;BME280;15525;45.568;5.448;2023-04-26T06:26:38;98066.53;;;12.41;50.29
28267;BME280;15525;45.568;5.448;2023-04-26T06:29:04;98029.38;;;12.20;49.94
28267;BME280;15525;45.568;5.448;2023-04-26T06:31:30;98044.59;;;12.34;50.49
28267;BME280;15525;45.568;5.448;2023-04-26T06:33:56;98054.19;;;12.74;49.59
28267;BME280;15525;45.568;5.448;2023-04-26T06:36:21;98053.72;;;12.95;48.74
28267;BME280;15525;45.568;5.448;2023-04-26T06:38:46;98059.72;;;13.16;48.72
28267;BME280;15525;45.568;5.448;2023-04-26T06:41:12;98043.81;;;13.19;48.80
28267;BME280;15525;45.568;5.448;2023-04-26T06:43:38;98059.19;;;13.37;48.71
28267;BME280;15525;45.568;5.448;2023-04-26T06:46:04;98047.38;;;13.38;48.62
28267;BME280;15525;45.568;5.448;2023-04-26T06:48:29;98057.38;;;13.56;48.55
28267;BME280;15525;45.568;5.448;2023-04-26T06:50:54;98038.34;;;13.71;48.54
28267;BME280;15525;45.568;5.448;2023-04-26T06:53:20;98046.34;;;13.76;48.35
28267;BME280;15525;45.568;5.448;2023-04-26T06:55:46;98024.97;;;13.85;48.26
28267;BME280;15525;45.568;5.448;2023-04-26T06:58:11;98050.88;;;13.99;48.57
28267;BME280;15525;45.568;5.448;2023-04-26T07:00:36;98016.53;;;13.91;48.47
28267;BME280;15525;45.568;5.448;2023-04-26T07:03:02;98023.31;;;14.07;48.54
28267;BME280;15525;45.568;5.448;2023-04-26T07:05:27;98022.88;;;14.37;48.27
28267;BME280;15525;45.568;5.448;2023-04-26T07:07:53;97985.91;;;14.24;48.07
28267;BME280;15525;45.568;5.448;2023-04-26T07:10:18;98014.97;;;14.59;47.64
28267;BME280;15525;45.568;5.448;2023-04-26T07:12:45;98034.16;;;15.03;47.32
28267;BME280;15525;45.568;5.448;2023-04-26T07:15:10;98022.16;;;15.09;47.04
28267;BME280;15525;45.568;5.448;2023-04-26T07:17:36;98014.28;;;15.26;46.98
28267;BME280;15525;45.568;5.448;2023-04-26T07:20:01;98026.56;;;15.32;47.06
28267;BME280;15525;45.568;5.448;2023-04-26T07:22:28;98033.50;;;15.52;46.75
28267;BME280;15525;45.568;5.448;2023-04-26T07:24:53;98036.88;;;15.57;46.45
28267;BME280;15525;45.568;5.448;2023-04-26T07:27:19;98041.41;;;15.97;45.52
28267;BME280;15525;45.568;5.448;2023-04-26T07:29:44;98040.53;;;15.88;45.61
28267;BME280;15525;45.568;5.448;2023-04-26T07:32:10;98051.72;;;15.95;45.55
28267;BME280;15525;45.568;5.448;2023-04-26T07:34:35;98031.88;;;16.13;45.31
28267;BME280;15525;45.568;5.448;2023-04-26T07:37:01;97988.53;;;15.96;45.58
28267;BME280;15525;45.568;5.448;2023-04-26T07:39:26;97985.84;;;16.18;45.06
28267;BME280;15525;45.568;5.448;2023-04-26T07:41:52;98037.03;;;16.81;44.38
28267;BME280;15525;45.568;5.448;2023-04-26T07:44:17;98048.69;;;17.20;43.64
28267;BME280;15525;45.568;5.448;2023-04-26T07:46:42;98039.69;;;17.33;43.25
28267;BME280;15525;45.568;5.448;2023-04-26T07:49:08;98032.44;;;17.42;43.24
28267;BME280;15525;45.568;5.448;2023-04-26T07:51:34;98044.47;;;17.36;43.40
28267;BME280;15525;45.568;5.448;2023-04-26T07:54:00;98031.41;;;17.38;43.06
28267;BME280;15525;45.568;5.448;2023-04-26T07:56:26;98039.34;;;17.57;43.19
28267;BME280;15525;45.568;5.448;2023-04-26T07:58:51;98035.06;;;17.73;43.11
28267;BME280;15525;45.568;5.448;2023-04-26T08:01:17;98029.53;;;18.03;42.30
28267;BME280;15525;45.568;5.448;2023-04-26T08:03:42;98049.81;;;18.14;42.31
28267;BME280;15525;45.568;5.448;2023-04-26T08:06:08;98040.06;;;18.13;42.31
28267;BME280;15525;45.568;5.448;2023-04-26T08:08:34;98034.53;;;18.35;42.07
28267;BME280;15525;45.568;5.448;2023-04-26T08:11:06;98037.72;;;18.63;41.42
28267;BME280;15525;45.568;5.448;2023-04-26T08:13:32;98040.41;;;18.71;41.65
28267;BME280;15525;45.568;5.448;2023-04-26T08:15:57;98023.66;;;18.69;41.45
28267;BME280;15525;45.568;5.448;2023-04-26T08:18:23;98030.66;;;18.87;41.47
28267;BME280;15525;45.568;5.448;2023-04-26T08:20:48;98039.22;;;19.06;40.98
28267;BME280;15525;45.568;5.448;2023-04-26T08:23:13;98010.28;;;19.19;40.91
28267;BME280;15525;45.568;5.448;2023-04-26T08:25:39;98031.66;;;19.37;40.71
28267;BME280;15525;45.568;5.448;2023-04-26T08:28:04;98038.16;;;19.36;40.81
28267;BME280;15525;45.568;5.448;2023-04-26T08:30:32;98031.47;;;19.34;40.83
28267;BME280;15525;45.568;5.448;2023-04-26T08:32:57;98037.31;;;19.82;40.06
28267;BME280;15525;45.568;5.448;2023-04-26T08:35:23;98047.47;;;19.93;39.45
28267;BME280;15525;45.568;5.448;2023-04-26T08:37:48;98033.97;;;19.85;39.52
28267;BME280;15525;45.568;5.448;2023-04-26T08:40:18;98029.41;;;19.68;38.92
28267;BME280;15525;45.568;5.448;2023-04-26T08:42:46;98032.22;;;19.80;38.60
28267;BME280;15525;45.568;5.448;2023-04-26T08:45:13;98047.28;;;19.98;39.04
28267;BME280;15525;45.568;5.448;2023-04-26T08:47:49;98037.72;;;20.21;37.83
28267;BME280;15525;45.568;5.448;2023-04-26T08:50:20;98034.06;;;20.38;38.00
28267;BME280;15525;45.568;5.448;2023-04-26T08:52:47;98030.19;;;20.59;38.01
28267;BME280;15525;45.568;5.448;2023-04-26T08:55:14;98045.16;;;20.53;38.03
28267;BME280;15525;45.568;5.448;2023-04-26T08:57:42;98030.84;;;20.77;38.10
28267;BME280;15525;45.568;5.448;2023-04-26T09:00:10;98018.94;;;20.81;37.72
28267;BME280;15525;45.568;5.448;2023-04-26T09:02:40;98033.00;;;21.04;37.67
28267;BME280;15525;45.568;5.448;2023-04-26T09:05:07;98030.00;;;21.42;37.07
28267;BME280;15525;45.568;5.448;2023-04-26T09:07:56;98036.72;;;21.68;36.56
28267;BME280;15525;45.568;5.448;2023-04-26T09:10:25;98015.69;;;21.69;36.41
28267;BME280;15525;45.568;5.448;2023-04-26T09:12:51;98033.09;;;21.88;36.47
28267;BME280;15525;45.568;5.448;2023-04-26T09:15:17;98033.53;;;21.66;36.75
28267;BME280;15525;45.568;5.448;2023-04-26T09:17:44;98017.75;;;21.84;36.37
28267;BME280;15525;45.568;5.448;2023-04-26T09:20:24;98027.25;;;22.14;35.78
28267;BME280;15525;45.568;5.448;2023-04-26T09:23:02;98034.63;;;22.13;34.64
28267;BME280;15525;45.568;5.448;2023-04-26T09:25:30;98027.78;;;22.31;35.65
28267;BME280;15525;45.568;5.448;2023-04-26T09:27:56;98026.16;;;22.82;35.22
28267;BME280;15525;45.568;5.448;2023-04-26T09:30:22;98023.63;;;23.04;34.64
28267;BME280;15525;45.568;5.448;2023-04-26T09:32:59;98017.19;;;22.97;33.19
28267;BME280;15525;45.568;5.448;2023-04-26T09:35:38;98029.84;;;23.32;34.02
28267;BME280;15525;45.568;5.448;2023-04-26T09:38:05;98037.38;;;23.51;34.06
28267;BME280;15525;45.568;5.448;2023-04-26T09:40:33;98026.63;;;23.42;33.76
28267;BME280;15525;45.568;5.448;2023-04-26T09:43:03;98030.91;;;23.28;33.26
28267;BME280;15525;45.568;5.448;2023-04-26T09:45:31;98033.34;;;23.17;33.84
28267;BME280;15525;45.568;5.448;2023-04-26T09:50:53;98024.47;;;23.98;32.48
28267;BME280;15525;45.568;5.448;2023-04-26T09:53:26;98027.13;;;23.79;29.83
28267;BME280;15525;45.568;5.448;2023-04-26T09:55:53;98022.25;;;24.03;31.83
28267;BME280;15525;45.568;5.448;2023-04-26T09:58:18;97987.28;;;24.12;31.63
28267;BME280;15525;45.568;5.448;2023-04-26T10:00:45;98007.75;;;24.56;31.00
28267;BME280;15525;45.568;5.448;2023-04-26T10:03:14;98013.88;;;24.88;30.56
28267;BME280;15525;45.568;5.448;2023-04-26T10:05:42;98016.78;;;23.10;30.16
28267;BME280;15525;45.568;5.448;2023-04-26T10:08:07;98020.50;;;22.35;30.70
28267;BME280;15525;45.568;5.448;2023-04-26T10:10:34;98013.31;;;22.55;30.87
28267;BME280;15525;45.568;5.448;2023-04-26T10:13:00;98019.53;;;23.57;30.37
28267;BME280;15525;45.568;5.448;2023-04-26T10:15:26;98008.97;;;24.40;29.16
28267;BME280;15525;45.568;5.448;2023-04-26T10:17:52;97999.03;;;24.32;28.94
28267;BME280;15525;45.568;5.448;2023-04-26T10:20:19;97993.78;;;24.80;28.84
28267;BME280;15525;45.568;5.448;2023-04-26T10:22:50;97995.47;;;25.07;28.09
28267;BME280;15525;45.568;5.448;2023-04-26T10:25:17;97984.72;;;25.40;28.88
28267;BME280;15525;45.568;5.448;2023-04-26T10:30:52;97990.19;;;25.89;27.34
28267;BME280;15525;45.568;5.448;2023-04-26T10:33:18;97976.94;;;25.23;28.71
28267;BME280;15525;45.568;5.448;2023-04-26T10:38:29;97979.59;;;25.61;28.83
28267;BME280;15525;45.568;5.448;2023-04-26T10:40:54;97971.03;;;25.92;28.54
28267;BME280;15525;45.568;5.448;2023-04-26T10:43:27;97966.97;;;25.83;27.57
28267;BME280;15525;45.568;5.448;2023-04-26T10:45:52;97970.81;;;25.30;28.38
28267;BME280;15525;45.568;5.448;2023-04-26T10:48:27;97985.84;;;25.17;28.69
28267;BME280;15525;45.568;5.448;2023-04-26T10:58:49;97959.53;;;25.12;28.75
28267;BME280;15525;45.568;5.448;2023-04-26T11:01:31;97960.31;;;25.58;28.34
28267;BME280;15525;45.568;5.448;2023-04-26T11:06:25;97966.28;;;25.63;28.24
28267;BME280;15525;45.568;5.448;2023-04-26T11:08:52;97961.44;;;26.05;28.45
28267;BME280;15525;45.568;5.448;2023-04-26T11:11:17;97965.00;;;26.39;27.70
28267;BME280;15525;45.568;5.448;2023-04-26T11:13:44;97951.25;;;26.68;27.11
28267;BME280;15525;45.568;5.448;2023-04-26T11:16:12;97932.28;;;26.93;26.70
28267;BME280;15525;45.568;5.448;2023-04-26T11:18:39;97954.59;;;25.92;27.41
28267;BME280;15525;45.568;5.448;2023-04-26T11:21:06;97952.09;;;25.84;27.01
28267;BME280;15525;45.568;5.448;2023-04-26T11:23:32;97944.63;;;25.32;27.39
28267;BME280;15525;45.568;5.448;2023-04-26T11:26:03;97940.59;;;25.04;27.19
28267;BME280;15525;45.568;5.448;2023-04-26T11:28:32;97914.53;;;25.36;26.34
28267;BME280;15525;45.568;5.448;2023-04-26T11:30:58;97927.97;;;26.26;26.91
28267;BME280;15525;45.568;5.448;2023-04-26T11:33:25;97914.38;;;27.13;26.89
28267;BME280;15525;45.568;5.448;2023-04-26T11:35:51;97921.88;;;27.63;26.47
28267;BME280;15525;45.568;5.448;2023-04-26T11:38:20;97915.69;;;27.76;26.51
28267;BME280;15525;45.568;5.448;2023-04-26T11:40:52;97915.88;;;27.47;25.44
28267;BME280;15525;45.568;5.448;2023-04-26T11:43:18;97908.25;;;26.83;27.10
28267;BME280;15525;45.568;5.448;2023-04-26T11:45:44;97917.13;;;27.60;27.41
28267;BME280;15525;45.568;5.448;2023-04-26T11:48:11;97915.94;;;28.18;26.28
28267;BME280;15525;45.568;5.448;2023-04-26T11:50:38;97914.44;;;28.42;26.47
28267;BME280;15525;45.568;5.448;2023-04-26T11:53:05;97906.34;;;27.88;26.61
28267;BME280;15525;45.568;5.448;2023-04-26T11:55:32;97900.22;;;28.22;25.81
28267;BME280;15525;45.568;5.448;2023-04-26T11:58:09;97901.59;;;27.85;27.15
28267;BME280;15525;45.568;5.448;2023-04-26T12:00:34;97899.91;;;28.45;26.84
28267;BME280;15525;45.568;5.448;2023-04-26T12:03:04;97894.59;;;27.98;25.38
28267;BME280;15525;45.568;5.448;2023-04-26T12:05:35;97893.94;;;26.30;26.21
28267;BME280;15525;45.568;5.448;2023-04-26T12:08:00;97900.72;;;26.10;27.22
28267;BME280;15525;45.568;5.448;2023-04-26T12:10:33;97912.75;;;27.05;26.58
28267;BME280;15525;45.568;5.448;2023-04-26T12:12:59;97902.69;;;27.77;26.77
28267;BME280;15525;45.568;5.448;2023-04-26T12:15:28;97888.47;;;28.39;26.28
28267;BME280;15525;45.568;5.448;2023-04-26T12:18:08;97892.72;;;28.23;24.70
28267;BME280;15525;45.568;5.448;2023-04-26T12:20:36;97909.53;;;28.00;25.76
28267;BME280;15525;45.568;5.448;2023-04-26T12:23:12;97908.41;;;27.51;26.09
28267;BME280;15525;45.568;5.448;2023-04-26T12:25:39;97901.63;;;27.88;24.88
28267;BME280;15525;45.568;5.448;2023-04-26T12:28:08;97903.63;;;26.24;24.84
28267;BME280;15525;45.568;5.448;2023-04-26T12:30:37;97911.97;;;25.98;25.18
28267;BME280;15525;45.568;5.448;2023-04-26T12:33:03;97896.69;;;26.67;24.81
28267;BME280;15525;45.568;5.448;2023-04-26T12:35:29;97886.53;;;27.14;24.54
28267;BME280;15525;45.568;5.448;2023-04-26T12:37:55;97884.38;;;28.02;23.98
28267;BME280;15525;45.568;5.448;2023-04-26T12:40:22;97887.75;;;28.57;23.06
28267;BME280;15525;45.568;5.448;2023-04-26T12:42:48;97891.53;;;27.52;23.80
28267;BME280;15525;45.568;5.448;2023-04-26T12:45:15;97895.88;;;27.53;24.34
28267;BME280;15525;45.568;5.448;2023-04-26T12:47:42;97886.06;;;28.27;23.16
28267;BME280;15525;45.568;5.448;2023-04-26T12:50:08;97882.47;;;28.16;22.60
28267;BME280;15525;45.568;5.448;2023-04-26T12:52:36;97898.66;;;27.57;21.94
28267;BME280;15525;45.568;5.448;2023-04-26T12:55:01;97879.59;;;26.84;22.71
28267;BME280;15525;45.568;5.448;2023-04-26T12:57:29;97877.91;;;27.16;22.55
28267;BME280;15525;45.568;5.448;2023-04-26T12:59:54;97896.50;;;27.87;21.39
28267;BME280;15525;45.568;5.448;2023-04-26T13:02:21;97894.41;;;27.70;20.57
28267;BME280;15525;45.568;5.448;2023-04-26T13:04:47;97884.13;;;27.09;21.09
28267;BME280;15525;45.568;5.448;2023-04-26T13:07:12;97879.91;;;27.19;19.88
28267;BME280;15525;45.568;5.448;2023-04-26T13:09:38;97886.69;;;26.52;20.06
28267;BME280;15525;45.568;5.448;2023-04-26T13:12:03;97880.78;;;26.83;19.49
28267;BME280;15525;45.568;5.448;2023-04-26T13:14:29;97879.50;;;27.78;19.34
28267;BME280;15525;45.568;5.448;2023-04-26T13:16:54;97876.47;;;26.85;20.04